Last 7 Days

Williams 2 (WL2)

Hourly Data | America/Los_Angeles
as of 10/23/19 8:07 AM PDT
Date & Time Temp (°F) RH (%) Dew Pt (°F) Wind Spd (mph) Wind Dir (°) Wind Gust (mph) Latest Rain (In) Daily Rain (In) Daily Min Temp (°F) Daily Max Temp (°F)
10/23/19 - 0800 54.2 71 45.0 1.7 N | 357 6.1 0.00 0.00 50.1 59.8
10/23/19 - 0700 53.6 73 45.3 1.0 NNW | 343 6.8 0.00 0.00 50.1 59.8
10/23/19 - 0600 51.0 76 43.7 0.6 NNE | 32 3.4 0.00 0.00 50.1 59.8
10/23/19 - 0500 52.3 70 42.8 0.9 N | 8 4.1 0.00 0.00 50.3 59.8
10/23/19 - 0400 53.3 67 42.8 1.0 NNE | 12 4.8 0.00 0.00 52.1 59.8
10/23/19 - 0300 56.3 62 43.2 1.0 NW | 326 5.1 0.00 0.00 53.6 59.8
10/23/19 - 0200 58.0 58 43.3 1.7 NNW | 331 7.4 0.00 0.00 56.4 59.8
10/23/19 - 0100 59.5 56 43.6 3.2 NNW | 331 7.4 0.00 0.00 48.0 87.9
10/23/19 - 0000 60.1 55 44.0 1.4 NNW | 346 5.8 0.00 0.00 48.0 87.9
10/22/19 - 2300 61.3 56 45.3 2.7 N | 358 7.1 0.00 0.00 48.0 87.9
10/22/19 - 2200 64.8 50 45.7 4.0 NNW | 338 8.1 0.00 0.00 48.0 87.9
10/22/19 - 2100 66.2 48 46.1 4.0 NNW | 347 7.8 0.00 0.00 48.0 87.9
10/22/19 - 2000 67.7 46 46.2 3.6 NNW | 336 7.8 0.00 0.00 48.0 87.9
10/22/19 - 1900 71.3 43 47.6 1.3 NNW | 327 5.4 0.00 0.00 48.0 87.9
10/22/19 - 1800 82.2 30 47.8 2.3 SE | 129 6.1 0.00 0.00 48.0 87.9
10/22/19 - 1700 85.9 28 48.6 3.4 S | 182 8.4 0.00 0.00 48.0 87.9
10/22/19 - 1600 87.2 26 47.8 3.5 S | 187 7.4 0.00 0.00 48.0 87.9
10/22/19 - 1500 85.6 27 47.5 3.3 S | 191 9.1 0.00 0.00 48.0 87.3
10/22/19 - 1400 82.6 29 47.1 3.7 S | 191 8.8 0.00 0.00 48.0 84.6
10/22/19 - 1300 79.3 31 46.5 3.6 S | 176 7.4 0.00 0.00 48.0 81.0
10/22/19 - 1200 76.1 34 45.5 3.0 SSE | 161 7.1 0.00 0.00 48.0 78.7
10/22/19 - 1100 72.4 39 46.0 2.9 SSE | 157 6.1 0.00 0.00 48.0 74.1
10/22/19 - 1000 67.6 44 44.6 1.3 S | 190 5.8 0.00 0.00 48.0 70.6
10/22/19 - 0900 60.0 53 42.9 2.4 NNW | 337 7.4 0.00 0.00 48.0 63.1
10/22/19 - 0800 55.2 61 41.9 3.6 NNW | 337 8.4 0.00 0.00 48.0 58.4
10/22/19 - 0700 53.4 64 41.6 2.2 NNW | 343 6.8 0.00 0.00 48.0 58.4
10/22/19 - 0600 50.1 71 40.9 0.6 NE | 47 2.7 0.00 0.00 48.0 58.4
10/22/19 - 0500 48.9 69 39.2 0.6 ENE | 67 2.7 0.00 0.00 48.0 58.4
10/22/19 - 0400 49.9 65 38.5 0.8 N | 2 4.1 0.00 0.00 48.6 58.4
10/22/19 - 0300 51.6 60 38.1 0.7 ENE | 58 4.1 0.00 0.00 49.6 58.4
10/22/19 - 0200 54.5 55 38.6 0.5 SE | 136 2.1 0.00 0.00 52.8 58.4
10/22/19 - 0100 62.6 42 38.8 1.0 NNW | 346 4.8 0.00 0.00 49.9 88.0
10/22/19 - 0000 67.9 34 38.2 2.5 WNW | 289 8.1 0.00 0.00 49.9 88.0
10/21/19 - 2300 69.9 31 37.7 5.5 WNW | 302 10.5 0.00 0.00 49.9 88.0
10/21/19 - 2200 68.8 31 37.0 5.5 NW | 312 10.8 0.00 0.00 49.9 88.0
10/21/19 - 2100 69.6 30 36.8 4.4 NW | 318 9.8 0.00 0.00 49.9 88.0
10/21/19 - 2000 72.3 27 36.0 1.8 N | 3 9.5 0.00 0.00 49.9 88.0
10/21/19 - 1900 78.6 21 35.3 4.5 NNW | 336 8.4 0.00 0.00 49.9 88.0
10/21/19 - 1800 84.5 17 34.7 6.0 NW | 323 14.2 0.00 0.00 49.9 88.0
10/21/19 - 1700 86.9 18 37.6 7.6 NW | 325 16.8 0.00 0.00 49.9 88.0
10/21/19 - 1600 87.2 20 40.8 7.2 NW | 321 18.2 0.00 0.00 49.9 88.0
10/21/19 - 1500 86.6 21 41.8 7.3 NW | 318 14.8 0.00 0.00 49.9 87.4
10/21/19 - 1400 85.2 22 41.6 7.3 NW | 322 15.5 0.00 0.00 49.9 86.8
10/21/19 - 1300 82.5 24 42.5 6.8 NW | 323 14.2 0.00 0.00 49.9 84.9
10/21/19 - 1200 79.4 28 43.0 8.7 NNW | 332 16.8 0.00 0.00 49.9 80.7
10/21/19 - 1100 75.4 34 44.9 6.3 NNW | 331 13.8 0.00 0.00 49.9 78.0
10/21/19 - 1000 70.9 41 46.2 4.1 NNW | 335 8.4 0.00 0.00 49.9 73.1
10/21/19 - 0900 65.2 51 46.6 3.8 N | 3 7.8 0.00 0.00 49.9 68.4
10/21/19 - 0800 59.6 63 46.8 3.3 NNW | 334 7.8 0.00 0.00 49.9 63.0
10/21/19 - 0700 52.4 76 45.0 0.8 NNW | 334 4.8 0.00 0.00 49.9 60.2
10/21/19 - 0600 54.2 72 45.3 0.7 N | 358 3.4 0.00 0.00 51.1 60.2
10/21/19 - 0500 58.7 64 46.8 2.5 N | 352 6.4 0.00 0.00 56.4 60.2
10/21/19 - 0400 59.7 63 46.9 4.4 N | 354 9.8 0.00 0.00 56.4 60.2
10/21/19 - 0300 59.2 63 46.5 5.4 NNW | 346 9.8 0.00 0.00 56.4 60.1
10/21/19 - 0200 58.2 64 46.0 3.7 NNW | 342 7.1 0.00 0.00 56.4 59.3
10/21/19 - 0100 56.5 65 45.0 2.6 NNW | 343 7.1 0.00 0.00 50.6 79.7
10/21/19 - 0000 57.2 62 44.3 1.5 N | 8 6.1 0.00 0.00 50.6 79.7
10/20/19 - 2300 58.9 58 44.3 3.3 NNW | 342 8.8 0.00 0.00 50.6 79.7
10/20/19 - 2200 60.9 54 44.0 4.3 NNW | 347 8.1 0.00 0.00 50.6 79.7
10/20/19 - 2100 60.9 53 43.4 2.9 N | 352 7.8 0.00 0.00 50.6 79.7
10/20/19 - 2000 62.4 49 43.0 1.1 N | 5 4.1 0.00 0.00 50.6 79.7
10/20/19 - 1900 67.8 41 43.2 1.0 NNW | 331 3.4 0.00 0.00 50.6 79.7
10/20/19 - 1800 75.7 31 42.7 2.9 NW | 315 8.8 0.00 0.00 50.6 79.7
10/20/19 - 1700 78.4 28 42.7 4.3 W | 273 10.5 0.00 0.00 50.6 79.7
10/20/19 - 1600 78.7 28 42.6 4.0 WNW | 284 10.1 0.00 0.00 50.6 79.7
10/20/19 - 1500 76.7 30 43.1 3.9 ESE | 118 9.1 0.00 0.00 50.6 78.2
10/20/19 - 1400 75.4 33 44.5 4.6 SSE | 162 11.1 0.00 0.00 50.6 76.6
10/20/19 - 1300 73.6 34 43.7 4.2 SSE | 156 9.5 0.00 0.00 50.6 74.5
10/20/19 - 1200 71.5 33 40.5 2.6 WNW | 301 6.8 0.00 0.00 50.6 73.2
10/20/19 - 1100 68.3 39 42.5 4.5 NW | 323 9.8 0.00 0.00 50.6 69.8
10/20/19 - 1000 63.8 51 45.4 4.2 NNW | 348 8.1 0.00 0.00 50.6 66.7
10/20/19 - 0900 58.8 66 47.4 4.0 N | 354 9.8 0.00 0.00 50.6 61.2
10/20/19 - 0800 53.5 80 47.5 3.3 NNW | 337 11.1 0.00 0.00 50.6 58.4
10/20/19 - 0700 52.4 82 47.1 1.8 N | 5 7.1 0.00 0.00 50.8 58.4
10/20/19 - 0600 55.8 77 48.6 1.9 NW | 322 9.5 0.00 0.00 53.4 58.4
10/20/19 - 0500 56.9 77 49.6 4.0 NW | 324 10.8 0.00 0.00 55.3 58.4
10/20/19 - 0400 57.6 77 50.6 4.9 NW | 326 10.5 0.00 0.00 55.8 58.4
10/20/19 - 0300 57.3 78 50.4 3.1 NW | 324 9.8 0.00 0.00 55.8 58.4
10/20/19 - 0200 56.5 80 50.5 4.3 NNW | 338 8.4 0.00 0.00 55.8 57.3
10/20/19 - 0100 56.1 82 50.8 3.8 NNW | 328 9.1 0.00 0.00 42.8 72.8
10/20/19 - 0000 56.7 82 51.5 4.2 NNW | 334 7.4 0.00 0.00 42.8 72.8
10/19/19 - 2300 60.5 77 53.3 4.6 NNW | 330 7.8 0.00 0.00 42.8 72.8
10/19/19 - 2200 58.9 81 53.2 3.9 NNW | 329 8.8 0.00 0.00 42.8 72.8
10/19/19 - 2100 55.6 82 50.4 0.5 WNW | 291 2.4 0.00 0.00 42.8 72.8
10/19/19 - 2000 59.8 78 52.9 0.5 N | 354 3.1 0.00 0.00 42.8 72.8
10/19/19 - 1900 65.9 69 55.4 2.3 ENE | 57 6.1 0.00 0.00 42.8 72.8
10/19/19 - 1800 70.3 62 56.8 3.0 SW | 232 8.8 0.00 0.00 42.8 72.8
10/19/19 - 1700 71.3 60 56.9 4.0 WNW | 298 10.1 0.00 0.00 42.8 72.8
10/19/19 - 1600 70.5 63 57.4 4.9 W | 261 12.5 0.00 0.00 42.8 72.0
10/19/19 - 1500 70.2 63 56.9 5.4 W | 259 14.5 0.00 0.00 42.8 72.0
10/19/19 - 1400 69.8 60 55.4 4.4 NW | 318 14.8 0.00 0.00 42.8 72.0
10/19/19 - 1300 69.2 59 54.2 3.4 SSE | 159 12.5 0.00 0.00 42.8 70.2
10/19/19 - 1200 66.7 57 51.1 4.2 WNW | 300 11.8 0.00 0.00 42.8 68.1
10/19/19 - 1100 66.0 54 48.7 2.6 WSW | 237 8.1 0.00 0.00 42.8 67.7
10/19/19 - 1000 58.3 63 45.8 2.3 SSE | 150 5.8 0.00 0.00 42.8 63.2
10/19/19 - 0900 50.4 80 44.2 0.9 NE | 56 4.1 0.00 0.00 42.8 55.7
10/19/19 - 0800 46.3 86 42.4 1.1 E | 101 5.1 0.00 0.00 42.8 48.1
10/19/19 - 0700 46.4 86 42.5 1.0 NNE | 22 4.1 0.00 0.00 42.8 48.1
10/19/19 - 0600 46.9 86 43.0 1.1 E | 89 3.8 0.00 0.00 42.8 48.1
10/19/19 - 0500 45.0 88 41.8 0.8 SSE | 152 4.8 0.00 0.00 42.8 47.0
10/19/19 - 0400 44.2 90 41.3 0.9 ENE | 73 3.4 0.00 0.00 43.0 45.8
10/19/19 - 0300 43.9 88 40.7 0.5 ENE | 70 4.1 0.00 0.00 43.0 45.8
10/19/19 - 0200 44.5 86 40.7 0.6 N | 9 2.7 0.00 0.00 43.8 45.8
10/19/19 - 0100 45.1 85 41.0 0.6 E | 88 3.4 0.00 0.00 43.6 72.1
10/19/19 - 0000 46.8 84 42.4 0.7 N | 11 2.7 0.00 0.00 43.6 72.1
10/18/19 - 2300 47.8 81 42.4 0.6 NW | 308 3.1 0.00 0.00 43.6 72.1
10/18/19 - 2200 49.3 78 42.8 0.6 ESE | 106 2.4 0.00 0.00 43.6 72.1
10/18/19 - 2100 52.7 75 45.0 0.8 N | 2 3.8 0.00 0.00 43.6 72.1
10/18/19 - 2000 54.9 69 44.8 0.6 NE | 45 3.1 0.00 0.00 43.6 72.1
10/18/19 - 1900 61.6 61 47.9 1.8 NE | 49 5.1 0.00 0.00 43.6 72.1
10/18/19 - 1800 66.9 52 48.5 3.7 WSW | 243 9.8 0.00 0.00 43.6 72.1
10/18/19 - 1700 69.8 44 47.0 5.3 WSW | 250 10.5 0.00 0.00 43.6 72.1
10/18/19 - 1600 71.1 39 45.2 6.1 WSW | 251 13.2 0.00 0.00 43.6 72.1
10/18/19 - 1500 71.2 42 46.6 6.2 WSW | 248 14.8 0.00 0.00 43.6 72.0
10/18/19 - 1400 70.5 42 46.5 6.3 WSW | 254 12.5 0.00 0.00 43.6 71.2
10/18/19 - 1300 68.6 51 49.5 4.2 W | 273 12.1 0.00 0.00 43.6 70.1
10/18/19 - 1200 66.8 55 50.0 5.3 W | 276 10.1 0.00 0.00 43.6 68.1
10/18/19 - 1100 65.9 56 49.7 5.6 NNW | 327 11.8 0.00 0.00 43.6 66.8
10/18/19 - 1000 60.8 56 44.9 1.8 SSE | 160 7.8 0.00 0.00 43.6 64.6
10/18/19 - 0900 51.9 70 42.4 0.8 N | 2 3.4 0.00 0.00 43.6 57.5
10/18/19 - 0800 46.4 78 39.8 1.4 NNW | 348 5.1 0.00 0.00 43.6 57.5
10/18/19 - 0700 48.4 74 40.5 1.7 N | 354 4.8 0.00 0.00 43.6 57.5
10/18/19 - 0600 44.7 79 38.4 0.9 ENE | 57 3.8 0.00 0.00 43.6 57.5
10/18/19 - 0500 46.7 74 39.0 1.0 NE | 49 3.8 0.00 0.00 44.5 57.5
10/18/19 - 0400 54.4 62 41.7 2.5 NNW | 339 9.8 0.00 0.00 50.7 57.5
10/18/19 - 0300 56.4 60 42.8 5.7 NNW | 334 11.1 0.00 0.00 53.8 57.5
10/18/19 - 0200 55.1 61 42.0 2.2 NW | 305 6.8 0.00 0.00 53.8 57.5
10/18/19 - 0100 57.7 57 42.4 6.0 NNW | 328 12.1 0.00 0.00 49.0 74.6
10/18/19 - 0000 58.1 55 42.0 6.7 NNW | 328 13.5 0.00 0.00 49.0 74.6
10/17/19 - 2300 59.3 52 41.6 6.2 NNW | 331 12.8 0.00 0.00 49.0 74.6
10/17/19 - 2200 59.8 49 40.4 5.5 NNW | 334 9.5 0.00 0.00 49.0 74.6
10/17/19 - 2100 60.5 47 40.0 4.5 NNW | 328 9.1 0.00 0.00 49.0 74.6
10/17/19 - 2000 62.6 42 39.4 4.1 NW | 324 8.1 0.00 0.00 49.0 74.6
10/17/19 - 1900 66.2 36 38.4 5.8 NW | 313 13.5 0.00 0.00 49.0 74.6
10/17/19 - 1800 69.9 32 38.7 7.0 WNW | 303 14.2 0.00 0.00 49.0 74.6
10/17/19 - 1700 72.4 30 39.4 7.4 WNW | 299 13.8 0.00 0.00 49.0 74.6
10/17/19 - 1600 73.5 29 39.2 7.5 NW | 304 16.8 0.00 0.00 49.0 74.6
10/17/19 - 1500 73.9 28 38.6 6.9 WNW | 300 13.8 0.00 0.00 49.0 74.6
10/17/19 - 1400 72.6 29 38.7 5.8 WNW | 298 14.2 0.00 0.00 49.0 73.5
10/17/19 - 1300 70.2 31 38.4 5.8 NW | 304 13.2 0.00 0.00 49.0 72.1
10/17/19 - 1200 67.2 40 42.3 5.8 NW | 305 14.5 0.00 0.00 49.0 69.4
10/17/19 - 1100 64.8 46 43.7 7.7 NW | 322 14.5 0.00 0.00 49.0 66.0
10/17/19 - 1000 61.4 54 44.6 6.6 NNW | 330 14.2 0.00 0.00 49.0 63.4
10/17/19 - 0900 55.5 71 46.2 3.1 NNW | 342 9.5 0.00 0.00 49.0 60.8
10/17/19 - 0800 51.5 82 46.3 1.9 NW | 305 6.8 0.00 0.00 49.0 60.8
10/17/19 - 0700 51.4 91 48.9 1.6 NW | 326 7.8 0.00 0.00 49.8 60.8
10/17/19 - 0600 52.4 93 50.4 2.2 ENE | 78 5.8 0.00 0.00 50.6 60.8
10/17/19 - 0500 52.0 92 49.7 1.4 E | 95 6.1 0.00 0.00 51.4 60.8
10/17/19 - 0400 52.3 89 49.3 1.0 ENE | 59 4.1 0.00 0.00 51.5 60.8
10/17/19 - 0300 56.0 85 51.7 1.0 NW | 310 4.1 0.00 0.00 53.7 60.8
10/17/19 - 0200 59.6 82 54.1 3.1 NW | 312 10.8 0.00 0.00 58.2 60.8
10/17/19 - 0100 61.6 76 54.0 2.6 NNW | 333 9.1 0.00 0.00 42.2 74.8
10/17/19 - 0000 62.0 72 52.7 4.8 NNE | 21 12.8 0.00 0.00 42.2 74.8
10/16/19 - 2300 62.1 69 51.6 7.4 N | 355 13.5 0.00 0.00 42.2 74.8
10/16/19 - 2200 61.8 64 49.7 6.6 N | 352 12.8 0.00 0.00 42.2 74.8
10/16/19 - 2100 61.6 61 48.2 4.2 WNW | 292 10.1 0.00 0.00 42.2 74.8
10/16/19 - 2000 62.0 60 47.8 4.6 W | 270 11.1 0.00 0.00 42.2 74.8
10/16/19 - 1900 63.0 55 46.7 1.3 SW | 236 8.8 0.00 0.00 42.2 74.8
10/16/19 - 1800 66.1 45 43.9 3.1 WSW | 251 9.1 0.00 0.00 42.2 74.8
10/16/19 - 1700 70.6 41 45.6 3.7 WSW | 254 10.5 0.00 0.00 42.2 74.8
10/16/19 - 1600 74.0 24 35.4 3.2 NW | 319 10.1 0.00 0.00 42.2 74.8
10/16/19 - 1500 73.7 30 39.8 2.8 N | 359 6.4 0.00 0.00 42.2 74.8
10/16/19 - 1400 71.6 35 42.3 3.7 SE | 127 7.4 0.00 0.00 42.2 72.3
10/16/19 - 1300 69.8 38 43.1 3.4 SSE | 158 7.8 0.00 0.00 42.2 70.3
10/16/19 - 1200 67.8 40 42.8 2.3 SSE | 164 6.1 0.00 0.00 42.2 69.9
10/16/19 - 1100 62.4 46 41.4 1.5 SSE | 166 4.4 0.00 0.00 42.2 65.0
10/16/19 - 1000 59.2 52 41.3 1.5 WSW | 251 6.4 0.00 0.00 42.2 60.5
10/16/19 - 0900 52.0 63 39.4 1.4 SW | 216 5.8 0.00 0.00 42.2 58.0
Max 87.2 93 57.4 8.7 - 18.2 0.00 0.00 58.2 88.0
Avg 62.8 56 44.7 3.3 - 8.4 0.00 - - -
Min 43.9 17 34.7 0.5 - 2.1 0.00 0.00 42.2 45.8
Total - - - - - - 0.00 - - -
Tip: Bookmark this page for easy future reference